Latest Coastal Weather Observations for Minlaton Airport

IDS60701

Issued at 1:02 am CDT Sunday 29 March 2015 (issued every 10 minutes, with the page automatically refreshed every 10 minutes)

About coastal observations | Map of coastal stations | Coastal observations for SA | Marine services | Other Formats
Station Details ID: 022031 Name: MINLATON AERO Lat: -34.75 Lon: 137.53 Height: 32.0 m
Data from the previous 72 hours. | See also: Recent months at Minlaton Airport
Date/Time
CDT
Temp

°C
Wind Pressure Rain
since 9am
mm
Weather Cloud Vis
km
Sea
Height
m
Swell
Dir
 
Speed
knots
Gust
knots
hPa Trend Height
m
Period
s
Dir
29/01:00am 13.4 E 4 6 1021.3 - 0.0 - - - - - - -
29/12:30am 13.4 CALM 0 0 1021.4 - 0.0 - - - - - - -
29/12:00am 12.2 NNE 1 3 1021.5 - 0.0 - - - - - - -
 
Date/Time
CDT
Temp

°C
Wind Pressure Rain
since 9am
mm
Weather Cloud Vis
km
Sea
Height
m
Swell
Dir
 
Speed
knots
Gust
knots
hPa Trend Height
m
Period
s
Dir
28/11:30pm 12.7 N 5 5 1021.4 - 0.0 - - - - - - -
28/11:00pm 12.9 ENE 6 7 1021.4 - 0.0 - - - - - - -
28/10:30pm 14.3 NE 5 6 1021.7 - 0.0 - - - - - - -
28/10:00pm 14.2 NE 6 7 1021.8 - 0.0 - - - - - - -
28/09:30pm 14.7 ENE 4 5 1021.9 - 0.0 - - - - - - -
28/09:00pm 14.0 ESE 5 6 1021.7 - 0.0 - - - - - - -
28/08:30pm 14.9 ESE 6 7 1021.4 - 0.0 - - - - - - -
28/08:00pm 14.2 E 5 6 1021.1 - 0.0 - - - - - - -
28/07:30pm 16.4 CALM 0 3 1021.1 - 0.0 - - - - - - -
28/07:00pm 18.1 NNW 4 5 1020.9 - 0.0 - - - - - - -
28/06:30pm 19.1 NW 5 7 1020.8 - 0.0 - - - - - - -
28/06:00pm 18.4 WSW 6 8 1020.8 - 0.0 - - - - - - -
28/05:30pm 18.8 W 8 10 1020.9 - 0.0 - - - - - - -
28/05:00pm 19.7 WNW 8 11 1020.8 - 0.0 - - - - - - -
28/04:30pm 20.0 WNW 7 10 1021.1 - 0.0 - - - - - - -
28/04:00pm 19.6 NW 7 11 1021.5 - 0.0 - - - - - - -
28/03:30pm 20.5 NW 9 12 1021.8 - 0.0 - - - - - - -
28/03:00pm 20.3 NW 9 13 1021.9 - 0.0 - - - - - - -
28/02:30pm 20.5 WNW 10 14 1022.4 - 0.0 - - - - - - -
28/02:00pm 20.8 WNW 10 13 1022.7 - 0.0 - - - - - - -
28/01:30pm 20.3 NW 11 14 1023.1 - 0.0 - - - - - - -
28/01:00pm 20.9 WNW 10 14 1023.2 - 0.0 - - - - - - -
28/12:30pm 21.2 NW 7 12 1023.7 - 0.0 - - - - - - -
28/12:00pm 21.4 N 9 19 1024.1 - 0.0 - - - - - - -
28/11:30am 19.8 NNE 7 13 1024.3 - 0.0 - - - - - - -
28/11:00am 19.1 NE 10 13 1024.6 - 0.0 - - - - - - -
28/10:30am 18.1 ENE 11 14 1024.9 - 0.0 - - - - - - -
28/10:00am 16.8 ENE 12 14 1025.0 - 0.0 - - - - - - -
28/09:30am 15.3 ENE 12 14 1025.2 - 0.0 - - - - - - -
28/09:00am 13.9 ENE 11 14 1025.1 - 0.0 - - - - - - -
28/08:30am 12.9 ENE 11 13 1025.0 - 0.0 - - - - - - -
28/08:00am 11.9 ENE 11 13 1024.6 - 0.0 - - - - - - -
28/07:30am 11.7 ENE 11 13 1024.5 - 0.0 - - - - - - -
28/07:00am 11.7 ENE 11 13 1024.3 - 0.0 - - - - - - -
28/06:30am 11.8 NE 12 14 1024.3 - 0.0 - - - - - - -
28/06:00am 12.0 NNE 6 8 1024.5 - 0.0 - - - - - - -
28/05:30am 12.5 E 7 8 1024.7 - 0.0 - - - - - - -
28/05:00am 12.6 E 8 9 1024.9 - 0.0 - - - - - - -
28/04:30am 11.6 E 9 11 1024.9 - 0.0 - - - - - - -
28/04:00am 10.0 E 9 9 1024.9 - 0.0 - - - - - - -
28/03:30am 9.6 E 8 9 1025.1 - 0.0 - - - - - - -
28/03:00am 9.7 E 8 8 1025.4 - 0.0 - - - - - - -
28/02:30am 10.1 E 8 9 1025.4 - 0.0 - - - - - - -
28/02:00am 10.2 ESE 8 9 1025.8 - 0.0 - - - - - - -
28/01:30am 10.8 ESE 9 10 1026.2 - 0.0 - - - - - - -
28/01:00am 11.7 SE 9 11 1026.4 - 0.0 - - - - - - -
28/12:30am 12.0 SE 9 11 1026.2 - 0.0 - - - - - - -
28/12:00am 12.0 SE 10 11 1026.4 - 0.0 - - - - - - -
 
Date/Time
CDT
Temp

°C
Wind Pressure Rain
since 9am
mm
Weather Cloud Vis
km
Sea
Height
m
Swell
Dir
 
Speed
knots
Gust
knots
hPa Trend Height
m
Period
s
Dir
27/11:30pm 11.8 SE 10 10 1026.5 - 0.0 - - - - - - -
27/11:00pm 12.1 SE 9 10 1026.8 - 0.0 - - - - - - -
27/10:30pm 12.1 SE 9 10 1026.9 - 0.0 - - - - - - -
27/10:00pm 12.1 SE 9 10 1027.1 - 0.0 - - - - - - -
27/09:30pm 12.1 SE 8 9 1027.2 - 0.0 - - - - - - -
27/09:00pm 12.6 SE 9 10 1027.1 - 0.0 - - - - - - -
27/08:30pm 12.6 SE 7 8 1026.9 - 0.0 - - - - - - -
27/08:00pm 14.3 SE 8 9 1026.7 - 0.0 - - - - - - -
27/07:30pm 16.3 SE 9 12 1026.4 - 0.0 - - - - - - -
27/07:00pm 16.8 ESE 9 12 1026.3 - 0.0 - - - - - - -
27/06:30pm 17.3 SW 9 11 1026.3 - 0.0 - - - - - - -
27/06:00pm 17.3 SW 14 18 1026.1 - 0.0 - - - - - - -
27/05:30pm 17.6 WSW 13 16 1026.1 - 0.0 - - - - - - -
27/05:00pm 18.0 WSW 11 15 1026.2 - 0.0 - - - - - - -
27/04:30pm 17.9 WSW 13 16 1026.3 - 0.0 - - - - - - -
27/04:00pm 18.2 WSW 12 16 1026.2 - 0.0 - - - - - - -
27/03:30pm 18.1 W 10 13 1026.5 - 0.0 - - - - - - -
27/03:00pm 18.3 WSW 10 14 1026.7 - 0.0 - - - - - - -
27/02:30pm 18.1 WSW 10 14 1027.1 - 0.0 - - - - - - -
27/02:00pm 18.6 WSW 11 15 1027.6 - 0.0 - - - - - - -
27/01:30pm 18.7 WSW 13 17 1027.9 - 0.0 - - - - - - -
27/01:00pm 17.5 WSW 12 15 1028.5 - 0.0 - - - - - - -
27/12:30pm 17.6 SW 13 17 1028.9 - 0.0 - - - - - - -
27/12:00pm 17.5 SSE 7 11 1029.3 - 0.0 - - - - - - -
27/11:30am 17.9 SSW 11 17 1029.7 - 0.0 - - - - - - -
27/11:00am 17.0 SW 10 15 1029.9 - 0.0 - - - - - - -
27/10:30am 17.7 SW 9 13 1029.8 - 0.0 - - - - - - -
27/10:00am 16.4 S 6 10 1029.9 - 0.0 - - - - - - -
27/09:30am 14.2 SE 6 8 1030.0 - 0.0 - - - - - - -
27/09:00am 13.9 SSW 7 12 1029.9 - 0.0 - - - - - - -
27/08:30am 14.0 SW 2 6 1029.7 - 0.0 - - - - - - -
27/08:00am 12.9 SSW 3 3 1029.4 - 0.0 - - - - - - -
27/07:30am 12.9 SSE 5 6 1028.9 - 0.0 - - - - - - -
27/07:00am 13.2 SSE 7 9 1028.6 - 0.0 - - - - - - -
27/06:30am 13.5 S 8 10 1028.5 - 0.0 - - - - - - -
27/06:00am 13.1 S 5 7 1028.1 - 0.0 - - - - - - -
27/05:30am 12.9 SSE 5 5 1027.9 - 0.0 - - - - - - -
27/05:00am 12.9 SE 5 6 1028.0 - 0.0 - - - - - - -
27/04:30am 13.2 SSE 9 12 1027.9 - 0.0 - - - - - - -
27/04:00am 14.0 S 8 13 1027.9 - 0.0 - - - - - - -
27/03:30am 13.4 SE 5 5 1028.1 - 0.0 - - - - - - -
27/03:00am 13.6 SSW 4 5 1028.3 - 0.0 - - - - - - -
27/02:30am 13.4 S 3 4 1028.3 - 0.0 - - - - - - -
27/02:00am 13.9 SSW 5 6 1028.6 - 0.0 - - - - - - -
27/01:30am 14.0 SSW 5 7 1028.6 - 0.0 - - - - - - -
27/01:00am 14.1 SW 7 8 1028.7 - 0.0 - - - - - - -
27/12:30am 14.1 SSW 7 9 1028.7 - 0.0 - - - - - - -
27/12:00am 13.8 SSW 5 6 1028.8 - 0.0 - - - - - - -
 
Date/Time
CDT
Temp

°C
Wind Pressure Rain
since 9am
mm
Weather Cloud Vis
km
Sea
Height
m
Swell
Dir
 
Speed
knots
Gust
knots
hPa Trend Height
m
Period
s
Dir
26/11:30pm 14.1 SSW 8 11 1028.9 - 0.0 - - - - - - -
26/11:00pm 14.7 SW 11 15 1028.8 - 0.0 - - - - - - -
26/10:30pm 14.7 SSW 10 13 1028.9 - 0.0 - - - - - - -
26/10:00pm 14.9 SW 11 14 1028.9 - 0.0 - - - - - - -
26/09:30pm 14.8 SW 11 15 1028.9 - 0.0 - - - - - - -
26/09:00pm 14.7 SSW 13 17 1028.8 - 0.0 - - - - - - -
26/08:30pm 14.6 SSW 11 15 1028.5 - 0.0 - - - - - - -
26/08:00pm 12.8 SSW 9 11 1028.4 - 0.0 - - - - - - -
26/07:30pm 13.8 SSW 8 11 1028.4 - 0.0 - - - - - - -
26/07:00pm 15.6 SSW 13 18 1027.9 - 0.0 - - - - - - -
26/06:30pm 16.1 SSW 13 17 1027.6 - 0.0 - - - - - - -
26/06:00pm 17.1 SW 16 20 1027.3 - 0.0 - - - - - - -
26/05:30pm 18.4 SW 16 23 1027.1 - 0.0 - - - - - - -
26/05:00pm 18.1 WSW 18 22 1026.8 - 0.0 - - - - - - -
26/04:30pm 19.1 SW 18 23 1026.8 - 0.0 - - - - - - -
26/04:00pm 18.4 SW 17 23 1026.7 - 0.0 - - - - - - -
26/03:30pm 18.2 WSW 19 25 1026.8 - 0.0 - - - - - - -
26/03:00pm 17.6 WSW 17 22 1026.8 - 0.0 - - - - - - -
26/02:30pm 18.2 SW 17 23 1026.9 - 0.0 - - - - - - -
26/02:00pm 16.9 SW 18 23 1027.0 - 0.0 - - - - - - -
26/01:30pm 18.5 SW 13 18 1027.4 - 0.0 - - - - - - -
26/01:00pm 16.8 SW 14 19 1027.6 - 0.0 - - - - - - -
26/12:30pm 17.0 SW 16 20 1027.5 - 0.0 - - - - - - -
26/12:00pm 16.4 SW 16 23 1027.4 - 0.0 - - - - - - -
26/11:30am 17.1 SW 15 17 1027.4 - 0.0 - - - - - - -
26/11:00am 16.0 SW 16 22 1027.3 - 0.0 - - - - - - -
26/10:30am 15.8 SSW 17 23 1027.0 - 0.0 - - - - - - -
26/10:00am 15.5 SW 16 21 1026.8 - 0.0 - - - - - - -
26/09:30am 15.1 SW 14 17 1026.5 - 0.0 - - - - - - -
26/09:00am 13.8 SW 14 18 1026.1 - 0.8 - - - - - - -
26/08:30am 12.9 SSW 10 13 1025.7 - 0.8 - - - - - - -
26/08:00am 10.4 SSW 9 10 1025.2 - 0.8 - - - - - - -
26/07:30am 10.6 SSW 10 13 1024.9 - 0.8 - - - - - - -
26/07:00am 11.5 SW 11 14 1024.5 - 0.8 - - - - - - -
26/06:30am 12.3 SW 13 16 1024.1 - 0.8 - - - - - - -
26/06:00am 11.6 SW 13 16 1023.8 - 0.8 - - - - - - -
26/05:30am 10.4 SSW 10 12 1023.5 - 0.8 - - - - - - -
26/05:00am 11.1 SW 13 17 1023.2 - 0.8 - - - - - - -
26/04:30am 9.9 SSW 8 9 1023.2 - 0.8 - - - - - - -
26/04:00am 10.9 SSW 11 13 1023.1 - 0.8 - - - - - - -
26/03:30am 11.3 SW 12 15 1022.9 - 0.8 - - - - - - -
26/03:00am 10.3 SW 9 11 1023.2 - 0.8 - - - - - - -
26/02:30am 11.0 SSW 9 11 1023.2 - 0.8 - - - - - - -
26/02:00am 12.0 SSW 13 17 1023.0 - 0.8 - - - - - - -
26/01:30am 10.7 SSW 11 12 1023.0 - 0.8 - - - - - - -
26/01:03am 12.1 SW 15 25 1022.8 - 0.8 - - - - - - -

Other Formats:

Comma delimited format used in spreadsheet applications
http://www.bom.gov.au/fwo/IDS60701/IDS60701.95659.axf

JavaScript Object Notation format (JSON) in row-major order
http://www.bom.gov.au/fwo/IDS60701/IDS60701.95659.json